Salem, IN

12:23 PM EDT on July 06, 2015 (GMT -0400)
Uplands PEAK Sanctuary | | Change Station
CLOSE
Current Station
Personal Weather Station
Location: Salem, IN
Elevation: 761 ft
Nearby Weather Stations
Active Advisory: Flood Warning

Elev 761 ft 38.49 °N, 86.17 °W | Updated 8 minutes ago

Clear
Clear
80.8 °F
Feels Like 85 °F
N
3.2
Wind Variable Wind from South

Today
High -- | Low -- °F
--% Chance of Precip.
Yesterday
High -- | Low -- °F
Precip. -- in
6:26 AM 9:11 PM
Waning Gibbous, 74% visible
Pressure 30.10 in
Visibility 7.0 miles
Clouds Scattered Clouds 2300 ft
Heat Index 85 °F
Dew Point 73 °F
Humidity 77%
Rainfall 0.00 in
Snow Depth Not available.
UV 8 out of 12
Pollen 3.50 out of 12
Air Quality Not available.
Flu Activity Not available.
SPECI KLOU 061601Z 17007KT 140V210 7SM SCT023 27/21 A3010 RMK AO2 T02720211

More Conditions Fewer Conditions

Pressure 30.10 in
Visibility 7.0 miles
Clouds Scattered Clouds 2300 ft
Heat Index 85 °F
Dew Point 73 °F
Humidity 77%
Rainfall 0.00 in
Snow Depth Not available.
UV 8 out of 12
Pollen 3.50 out of 12
Air Quality Not available.
Flu Activity Not available.
SPECI KLOU 061601Z 17007KT 140V210 7SM SCT023 27/21 A3010 RMK AO2 T02720211

More Conditions Fewer Conditions

10-Day Weather Forecast

×

Almanac

Astronomy

Jul. 06, 2015 Rise Set
Actual Time
Civil Twilight
Nautical Twilight
Astronomical Twilight
Moon
Length of Visible Light
Length of Day
Tomorrow will be .
, % of the Moon is Illuminated

Today's Extremes

State Highs State Lows

Community

WunderPhotos

Upload Photos

1,835,594 photos uploaded!

WunderBlogs® & News

Nearby

Air Quality

  Air Quality AQ Index Pollutant
Not available.

Snow Depth

Station Depth Elevation

Earthquake Activity

City Distance Mag. Time & Date
Minimum magnitude displayed is 2.5.

Coastal Water Temperatures

Place Temperature

Stations

Nearby Weather Stations

Station Location Temp. Windchill Dew Point Humidity Wind Precip. Elev Updated Type
                   
Flood Warning
Statement as of 11:06 AM EDT on July 06, 2015

The Flood Warning continues for
the muscatatuck river at Wheeler Hollow.
* Until further notice.
* Flood stage is 16.0 feet.
* Forecast... the river is forecast to have a maximum value of 17.3
feet early tomorrow.
* At 18.0 feet... floods area in a few low spots and Woodland areas
along the river. Residential property is not directly at this
point.


Lat... Lon 3878 8591 3878 8603 3880 8615 3876 8618
      3873 8605 3874 8591